sensor_id;sensor_type;location;lat;lon;timestamp;P1;durP1;ratioP1;P2;durP2;ratioP2
73452;SDS011;61687;56.232;43.854;2023-12-04T00:01:14;20.20;;;7.77;;
73452;SDS011;61687;56.232;43.854;2023-12-04T00:03:43;16.15;;;7.13;;
73452;SDS011;61687;56.232;43.854;2023-12-04T00:06:10;17.75;;;8.45;;
73452;SDS011;61687;56.232;43.854;2023-12-04T00:08:36;15.75;;;7.45;;
73452;SDS011;61687;56.232;43.854;2023-12-04T00:11:03;18.67;;;8.35;;
73452;SDS011;61687;56.232;43.854;2023-12-04T00:13:30;18.43;;;7.83;;
73452;SDS011;61687;56.232;43.854;2023-12-04T00:15:56;18.23;;;7.88;;
73452;SDS011;61687;56.232;43.854;2023-12-04T00:18:22;15.52;;;7.28;;
73452;SDS011;61687;56.232;43.854;2023-12-04T00:20:48;17.38;;;7.35;;
73452;SDS011;61687;56.232;43.854;2023-12-04T00:23:14;20.97;;;8.80;;
73452;SDS011;61687;56.232;43.854;2023-12-04T00:25:40;17.90;;;8.10;;
73452;SDS011;61687;56.232;43.854;2023-12-04T00:28:06;19.13;;;7.97;;
73452;SDS011;61687;56.232;43.854;2023-12-04T00:30:32;17.35;;;7.65;;
73452;SDS011;61687;56.232;43.854;2023-12-04T00:32:58;17.20;;;7.07;;
73452;SDS011;61687;56.232;43.854;2023-12-04T00:35:24;17.00;;;7.57;;
73452;SDS011;61687;56.232;43.854;2023-12-04T00:37:50;19.65;;;8.57;;
73452;SDS011;61687;56.232;43.854;2023-12-04T00:40:16;17.57;;;7.93;;
73452;SDS011;61687;56.232;43.854;2023-12-04T00:42:42;18.08;;;8.18;;
73452;SDS011;61687;56.232;43.854;2023-12-04T00:45:08;18.00;;;8.00;;
73452;SDS011;61687;56.232;43.854;2023-12-04T00:47:34;19.52;;;8.52;;
73452;SDS011;61687;56.232;43.854;2023-12-04T00:50:00;19.63;;;9.10;;
73452;SDS011;61687;56.232;43.854;2023-12-04T00:52:26;17.20;;;7.37;;
73452;SDS011;61687;56.232;43.854;2023-12-04T00:54:52;19.67;;;8.30;;
73452;SDS011;61687;56.232;43.854;2023-12-04T00:57:19;19.30;;;7.75;;
73452;SDS011;61687;56.232;43.854;2023-12-04T00:59:45;18.42;;;8.98;;
73452;SDS011;61687;56.232;43.854;2023-12-04T01:02:11;19.07;;;7.67;;
73452;SDS011;61687;56.232;43.854;2023-12-04T01:04:39;18.27;;;7.05;;
73452;SDS011;61687;56.232;43.854;2023-12-04T01:07:07;19.35;;;8.93;;
73452;SDS011;61687;56.232;43.854;2023-12-04T01:09:36;16.92;;;8.05;;
73452;SDS011;61687;56.232;43.854;2023-12-04T01:12:04;18.52;;;7.70;;
73452;SDS011;61687;56.232;43.854;2023-12-04T01:14:30;18.23;;;8.73;;
73452;SDS011;61687;56.232;43.854;2023-12-04T01:16:56;18.95;;;8.07;;
73452;SDS011;61687;56.232;43.854;2023-12-04T01:19:22;16.88;;;7.80;;
73452;SDS011;61687;56.232;43.854;2023-12-04T01:21:48;18.15;;;9.25;;
73452;SDS011;61687;56.232;43.854;2023-12-04T01:24:15;20.00;;;8.83;;
73452;SDS011;61687;56.232;43.854;2023-12-04T01:26:41;19.85;;;8.85;;
73452;SDS011;61687;56.232;43.854;2023-12-04T01:29:07;17.80;;;8.27;;
73452;SDS011;61687;56.232;43.854;2023-12-04T01:31:34;17.60;;;8.57;;
73452;SDS011;61687;56.232;43.854;2023-12-04T01:34:00;18.33;;;8.53;;
73452;SDS011;61687;56.232;43.854;2023-12-04T01:36:26;16.35;;;7.40;;
73452;SDS011;61687;56.232;43.854;2023-12-04T01:38:52;18.95;;;7.80;;
73452;SDS011;61687;56.232;43.854;2023-12-04T01:41:18;16.75;;;8.32;;
73452;SDS011;61687;56.232;43.854;2023-12-04T01:43:44;20.45;;;9.20;;
73452;SDS011;61687;56.232;43.854;2023-12-04T01:46:10;17.95;;;8.55;;
73452;SDS011;61687;56.232;43.854;2023-12-04T01:48:37;21.00;;;8.60;;
73452;SDS011;61687;56.232;43.854;2023-12-04T01:51:05;18.52;;;8.63;;
73452;SDS011;61687;56.232;43.854;2023-12-04T01:53:34;18.30;;;7.90;;
73452;SDS011;61687;56.232;43.854;2023-12-04T01:56:02;18.92;;;9.07;;
73452;SDS011;61687;56.232;43.854;2023-12-04T01:58:28;18.65;;;8.10;;
73452;SDS011;61687;56.232;43.854;2023-12-04T02:00:54;21.95;;;9.43;;
73452;SDS011;61687;56.232;43.854;2023-12-04T02:03:20;17.48;;;9.02;;
73452;SDS011;61687;56.232;43.854;2023-12-04T02:05:47;22.43;;;8.77;;
73452;SDS011;61687;56.232;43.854;2023-12-04T02:08:13;18.73;;;8.75;;
73452;SDS011;61687;56.232;43.854;2023-12-04T02:10:40;19.08;;;8.25;;
73452;SDS011;61687;56.232;43.854;2023-12-04T02:13:06;18.45;;;8.45;;
73452;SDS011;61687;56.232;43.854;2023-12-04T02:15:33;19.17;;;8.45;;
73452;SDS011;61687;56.232;43.854;2023-12-04T02:17:59;19.57;;;9.10;;
73452;SDS011;61687;56.232;43.854;2023-12-04T02:20:32;20.45;;;9.23;;
73452;SDS011;61687;56.232;43.854;2023-12-04T02:23:02;18.58;;;9.13;;
73452;SDS011;61687;56.232;43.854;2023-12-04T02:25:28;22.42;;;9.18;;
73452;SDS011;61687;56.232;43.854;2023-12-04T02:27:56;21.17;;;9.32;;
73452;SDS011;61687;56.232;43.854;2023-12-04T02:30:25;22.17;;;8.70;;
73452;SDS011;61687;56.232;43.854;2023-12-04T02:32:54;19.40;;;9.20;;
73452;SDS011;61687;56.232;43.854;2023-12-04T02:35:22;20.20;;;9.05;;
73452;SDS011;61687;56.232;43.854;2023-12-04T02:37:50;18.92;;;9.10;;
73452;SDS011;61687;56.232;43.854;2023-12-04T02:40:17;22.00;;;9.38;;
73452;SDS011;61687;56.232;43.854;2023-12-04T02:42:44;20.83;;;8.80;;
73452;SDS011;61687;56.232;43.854;2023-12-04T02:45:11;21.05;;;8.65;;
73452;SDS011;61687;56.232;43.854;2023-12-04T02:47:37;22.70;;;9.48;;
73452;SDS011;61687;56.232;43.854;2023-12-04T02:50:03;19.08;;;8.95;;
73452;SDS011;61687;56.232;43.854;2023-12-04T02:52:30;21.90;;;9.67;;
73452;SDS011;61687;56.232;43.854;2023-12-04T02:54:56;20.00;;;8.80;;
73452;SDS011;61687;56.232;43.854;2023-12-04T02:57:22;20.23;;;9.38;;
73452;SDS011;61687;56.232;43.854;2023-12-04T02:59:48;22.55;;;9.70;;
73452;SDS011;61687;56.232;43.854;2023-12-04T03:02:14;22.77;;;10.67;;
73452;SDS011;61687;56.232;43.854;2023-12-04T03:04:41;19.85;;;9.02;;
73452;SDS011;61687;56.232;43.854;2023-12-04T03:07:07;22.40;;;10.05;;
73452;SDS011;61687;56.232;43.854;2023-12-04T03:09:33;22.20;;;10.38;;
73452;SDS011;61687;56.232;43.854;2023-12-04T03:11:59;22.98;;;9.88;;
73452;SDS011;61687;56.232;43.854;2023-12-04T03:14:25;19.93;;;9.80;;
73452;SDS011;61687;56.232;43.854;2023-12-04T03:16:51;19.77;;;8.05;;
73452;SDS011;61687;56.232;43.854;2023-12-04T03:19:17;20.15;;;9.50;;
73452;SDS011;61687;56.232;43.854;2023-12-04T03:21:43;19.15;;;9.60;;
73452;SDS011;61687;56.232;43.854;2023-12-04T03:24:09;21.87;;;9.70;;
73452;SDS011;61687;56.232;43.854;2023-12-04T03:26:35;20.75;;;8.93;;
73452;SDS011;61687;56.232;43.854;2023-12-04T03:29:01;20.08;;;8.98;;
73452;SDS011;61687;56.232;43.854;2023-12-04T03:31:27;19.92;;;9.57;;
73452;SDS011;61687;56.232;43.854;2023-12-04T03:33:53;23.50;;;9.33;;
73452;SDS011;61687;56.232;43.854;2023-12-04T03:36:20;22.40;;;9.70;;
73452;SDS011;61687;56.232;43.854;2023-12-04T03:38:45;22.58;;;10.60;;
73452;SDS011;61687;56.232;43.854;2023-12-04T03:41:15;20.83;;;9.50;;
73452;SDS011;61687;56.232;43.854;2023-12-04T03:43:42;21.90;;;9.30;;
73452;SDS011;61687;56.232;43.854;2023-12-04T03:46:08;21.97;;;9.37;;
73452;SDS011;61687;56.232;43.854;2023-12-04T03:48:35;22.80;;;9.88;;
73452;SDS011;61687;56.232;43.854;2023-12-04T03:51:01;22.70;;;10.40;;
73452;SDS011;61687;56.232;43.854;2023-12-04T03:53:27;22.42;;;9.98;;
73452;SDS011;61687;56.232;43.854;2023-12-04T03:55:53;21.80;;;9.35;;
73452;SDS011;61687;56.232;43.854;2023-12-04T03:58:19;27.07;;;11.23;;
73452;SDS011;61687;56.232;43.854;2023-12-04T04:00:45;25.40;;;11.40;;
73452;SDS011;61687;56.232;43.854;2023-12-04T04:03:11;22.33;;;11.38;;
73452;SDS011;61687;56.232;43.854;2023-12-04T04:05:37;27.07;;;11.97;;
73452;SDS011;61687;56.232;43.854;2023-12-04T04:08:03;28.00;;;11.70;;
73452;SDS011;61687;56.232;43.854;2023-12-04T04:10:30;24.13;;;10.90;;
73452;SDS011;61687;56.232;43.854;2023-12-04T04:12:57;24.73;;;11.40;;
73452;SDS011;61687;56.232;43.854;2023-12-04T04:15:24;21.40;;;10.97;;
73452;SDS011;61687;56.232;43.854;2023-12-04T04:17:50;20.35;;;9.90;;
73452;SDS011;61687;56.232;43.854;2023-12-04T04:20:16;26.02;;;12.02;;
73452;SDS011;61687;56.232;43.854;2023-12-04T04:22:43;24.92;;;11.10;;
73452;SDS011;61687;56.232;43.854;2023-12-04T04:25:09;30.73;;;13.35;;
73452;SDS011;61687;56.232;43.854;2023-12-04T04:27:35;28.03;;;12.50;;
73452;SDS011;61687;56.232;43.854;2023-12-04T04:30:01;31.17;;;13.57;;
73452;SDS011;61687;56.232;43.854;2023-12-04T04:32:30;32.45;;;14.75;;
73452;SDS011;61687;56.232;43.854;2023-12-04T04:34:57;26.95;;;12.18;;
73452;SDS011;61687;56.232;43.854;2023-12-04T04:37:23;25.08;;;11.90;;
73452;SDS011;61687;56.232;43.854;2023-12-04T04:39:49;25.40;;;12.37;;
73452;SDS011;61687;56.232;43.854;2023-12-04T04:42:15;29.92;;;12.63;;
73452;SDS011;61687;56.232;43.854;2023-12-04T04:44:41;25.60;;;11.48;;
73452;SDS011;61687;56.232;43.854;2023-12-04T04:47:07;28.30;;;12.27;;
73452;SDS011;61687;56.232;43.854;2023-12-04T04:49:33;28.42;;;11.75;;
73452;SDS011;61687;56.232;43.854;2023-12-04T04:51:59;25.35;;;11.20;;
73452;SDS011;61687;56.232;43.854;2023-12-04T04:54:25;33.28;;;13.50;;
73452;SDS011;61687;56.232;43.854;2023-12-04T04:56:51;26.53;;;12.70;;
73452;SDS011;61687;56.232;43.854;2023-12-04T04:59:17;24.20;;;10.63;;
73452;SDS011;61687;56.232;43.854;2023-12-04T05:01:43;28.52;;;11.43;;
73452;SDS011;61687;56.232;43.854;2023-12-04T05:04:09;28.10;;;11.57;;
73452;SDS011;61687;56.232;43.854;2023-12-04T05:06:35;28.87;;;10.93;;
73452;SDS011;61687;56.232;43.854;2023-12-04T05:09:01;24.45;;;10.88;;
73452;SDS011;61687;56.232;43.854;2023-12-04T05:11:27;29.27;;;11.80;;
73452;SDS011;61687;56.232;43.854;2023-12-04T05:13:52;27.77;;;10.90;;
73452;SDS011;61687;56.232;43.854;2023-12-04T05:16:18;26.45;;;11.50;;
73452;SDS011;61687;56.232;43.854;2023-12-04T05:18:44;25.67;;;11.20;;
73452;SDS011;61687;56.232;43.854;2023-12-04T05:21:10;28.27;;;10.33;;
73452;SDS011;61687;56.232;43.854;2023-12-04T05:23:37;24.23;;;10.55;;
73452;SDS011;61687;56.232;43.854;2023-12-04T05:26:04;30.60;;;12.38;;
73452;SDS011;61687;56.232;43.854;2023-12-04T05:28:30;28.42;;;12.10;;
73452;SDS011;61687;56.232;43.854;2023-12-04T05:30:56;30.53;;;12.30;;
73452;SDS011;61687;56.232;43.854;2023-12-04T05:33:22;35.03;;;12.93;;
73452;SDS011;61687;56.232;43.854;2023-12-04T05:35:48;28.90;;;12.20;;
73452;SDS011;61687;56.232;43.854;2023-12-04T05:38:16;26.60;;;11.47;;
73452;SDS011;61687;56.232;43.854;2023-12-04T05:40:42;29.90;;;12.35;;
73452;SDS011;61687;56.232;43.854;2023-12-04T05:43:08;27.50;;;11.05;;
73452;SDS011;61687;56.232;43.854;2023-12-04T05:45:34;29.65;;;12.10;;
73452;SDS011;61687;56.232;43.854;2023-12-04T05:48:00;29.73;;;12.83;;
73452;SDS011;61687;56.232;43.854;2023-12-04T05:50:26;25.10;;;11.63;;
73452;SDS011;61687;56.232;43.854;2023-12-04T05:52:53;27.80;;;11.77;;
73452;SDS011;61687;56.232;43.854;2023-12-04T05:55:18;29.27;;;12.32;;
73452;SDS011;61687;56.232;43.854;2023-12-04T05:57:45;25.90;;;11.33;;
73452;SDS011;61687;56.232;43.854;2023-12-04T06:00:11;31.38;;;12.55;;
73452;SDS011;61687;56.232;43.854;2023-12-04T06:02:42;29.02;;;11.98;;
73452;SDS011;61687;56.232;43.854;2023-12-04T06:05:09;30.35;;;11.77;;
73452;SDS011;61687;56.232;43.854;2023-12-04T06:07:35;28.52;;;11.75;;
73452;SDS011;61687;56.232;43.854;2023-12-04T06:10:02;30.03;;;12.73;;
73452;SDS011;61687;56.232;43.854;2023-12-04T06:12:30;32.05;;;12.93;;
73452;SDS011;61687;56.232;43.854;2023-12-04T06:14:56;33.42;;;13.80;;
73452;SDS011;61687;56.232;43.854;2023-12-04T06:17:24;31.17;;;12.30;;
73452;SDS011;61687;56.232;43.854;2023-12-04T06:19:51;35.72;;;15.40;;
73452;SDS011;61687;56.232;43.854;2023-12-04T06:22:18;31.50;;;14.20;;
73452;SDS011;61687;56.232;43.854;2023-12-04T06:24:47;37.45;;;14.80;;
73452;SDS011;61687;56.232;43.854;2023-12-04T06:27:15;36.08;;;14.05;;
73452;SDS011;61687;56.232;43.854;2023-12-04T06:29:43;35.75;;;14.18;;
73452;SDS011;61687;56.232;43.854;2023-12-04T06:32:10;36.47;;;14.95;;
73452;SDS011;61687;56.232;43.854;2023-12-04T06:34:37;32.77;;;13.47;;
73452;SDS011;61687;56.232;43.854;2023-12-04T06:37:03;31.00;;;12.93;;
73452;SDS011;61687;56.232;43.854;2023-12-04T06:39:35;26.48;;;12.00;;
73452;SDS011;61687;56.232;43.854;2023-12-04T06:42:04;28.15;;;12.40;;
73452;SDS011;61687;56.232;43.854;2023-12-04T06:44:33;23.05;;;10.90;;
73452;SDS011;61687;56.232;43.854;2023-12-04T06:47:00;27.53;;;11.37;;
73452;SDS011;61687;56.232;43.854;2023-12-04T06:49:28;21.13;;;9.60;;
73452;SDS011;61687;56.232;43.854;2023-12-04T06:51:56;26.80;;;11.63;;
73452;SDS011;61687;56.232;43.854;2023-12-04T06:54:22;23.60;;;10.43;;
73452;SDS011;61687;56.232;43.854;2023-12-04T06:56:48;23.97;;;10.23;;
73452;SDS011;61687;56.232;43.854;2023-12-04T06:59:14;24.33;;;10.45;;
73452;SDS011;61687;56.232;43.854;2023-12-04T07:01:40;23.23;;;10.27;;
73452;SDS011;61687;56.232;43.854;2023-12-04T07:04:06;24.27;;;10.70;;
73452;SDS011;61687;56.232;43.854;2023-12-04T07:06:38;25.03;;;9.80;;
73452;SDS011;61687;56.232;43.854;2023-12-04T07:09:05;22.50;;;10.30;;
73452;SDS011;61687;56.232;43.854;2023-12-04T07:11:35;21.00;;;10.32;;
73452;SDS011;61687;56.232;43.854;2023-12-04T07:14:02;22.15;;;9.13;;
73452;SDS011;61687;56.232;43.854;2023-12-04T07:16:28;21.80;;;9.30;;
73452;SDS011;61687;56.232;43.854;2023-12-04T07:18:55;24.70;;;9.97;;
73452;SDS011;61687;56.232;43.854;2023-12-04T07:21:21;21.27;;;9.90;;
73452;SDS011;61687;56.232;43.854;2023-12-04T07:23:47;29.38;;;11.05;;
73452;SDS011;61687;56.232;43.854;2023-12-04T07:26:13;18.92;;;8.35;;
73452;SDS011;61687;56.232;43.854;2023-12-04T07:28:39;26.00;;;10.63;;
73452;SDS011;61687;56.232;43.854;2023-12-04T07:31:05;20.17;;;8.30;;
73452;SDS011;61687;56.232;43.854;2023-12-04T07:33:31;23.17;;;10.82;;
73452;SDS011;61687;56.232;43.854;2023-12-04T07:35:57;21.60;;;9.43;;
73452;SDS011;61687;56.232;43.854;2023-12-04T07:38:23;21.73;;;9.60;;
73452;SDS011;61687;56.232;43.854;2023-12-04T07:40:50;22.23;;;10.73;;
73452;SDS011;61687;56.232;43.854;2023-12-04T07:43:16;20.35;;;9.55;;
73452;SDS011;61687;56.232;43.854;2023-12-04T07:45:42;23.75;;;10.02;;
73452;SDS011;61687;56.232;43.854;2023-12-04T07:48:08;21.73;;;10.13;;
73452;SDS011;61687;56.232;43.854;2023-12-04T07:50:34;25.17;;;9.77;;
73452;SDS011;61687;56.232;43.854;2023-12-04T07:53:01;19.85;;;8.90;;
73452;SDS011;61687;56.232;43.854;2023-12-04T07:55:27;21.25;;;9.10;;
73452;SDS011;61687;56.232;43.854;2023-12-04T07:57:53;19.45;;;9.23;;
73452;SDS011;61687;56.232;43.854;2023-12-04T08:00:19;21.25;;;9.77;;
73452;SDS011;61687;56.232;43.854;2023-12-04T08:02:48;19.50;;;8.30;;
73452;SDS011;61687;56.232;43.854;2023-12-04T08:05:14;21.80;;;9.70;;
73452;SDS011;61687;56.232;43.854;2023-12-04T08:07:40;22.95;;;9.77;;
73452;SDS011;61687;56.232;43.854;2023-12-04T08:10:06;18.02;;;8.05;;
73452;SDS011;61687;56.232;43.854;2023-12-04T08:12:33;23.73;;;10.63;;
73452;SDS011;61687;56.232;43.854;2023-12-04T08:15:02;17.67;;;8.93;;
73452;SDS011;61687;56.232;43.854;2023-12-04T08:17:33;20.33;;;9.23;;
73452;SDS011;61687;56.232;43.854;2023-12-04T08:19:59;22.38;;;10.18;;
73452;SDS011;61687;56.232;43.854;2023-12-04T08:22:27;21.50;;;9.65;;
73452;SDS011;61687;56.232;43.854;2023-12-04T08:24:53;17.60;;;8.90;;
73452;SDS011;61687;56.232;43.854;2023-12-04T08:27:19;23.45;;;10.07;;
73452;SDS011;61687;56.232;43.854;2023-12-04T08:29:45;21.05;;;10.00;;
73452;SDS011;61687;56.232;43.854;2023-12-04T08:32:11;19.02;;;9.50;;
73452;SDS011;61687;56.232;43.854;2023-12-04T08:34:37;19.33;;;9.07;;
73452;SDS011;61687;56.232;43.854;2023-12-04T08:37:04;20.13;;;9.00;;
73452;SDS011;61687;56.232;43.854;2023-12-04T08:39:30;19.77;;;9.55;;
73452;SDS011;61687;56.232;43.854;2023-12-04T08:41:56;18.55;;;9.60;;
73452;SDS011;61687;56.232;43.854;2023-12-04T08:44:22;21.33;;;8.95;;
73452;SDS011;61687;56.232;43.854;2023-12-04T08:46:48;20.48;;;10.05;;
73452;SDS011;61687;56.232;43.854;2023-12-04T08:49:14;20.07;;;9.10;;
73452;SDS011;61687;56.232;43.854;2023-12-04T08:51:40;20.88;;;8.77;;
73452;SDS011;61687;56.232;43.854;2023-12-04T08:54:06;20.48;;;9.45;;
73452;SDS011;61687;56.232;43.854;2023-12-04T08:56:33;20.30;;;9.07;;
73452;SDS011;61687;56.232;43.854;2023-12-04T08:58:59;21.50;;;8.98;;
73452;SDS011;61687;56.232;43.854;2023-12-04T09:01:25;21.20;;;8.77;;
73452;SDS011;61687;56.232;43.854;2023-12-04T09:03:51;19.92;;;8.73;;
73452;SDS011;61687;56.232;43.854;2023-12-04T09:06:18;22.35;;;9.32;;
73452;SDS011;61687;56.232;43.854;2023-12-04T09:08:44;20.83;;;8.77;;
73452;SDS011;61687;56.232;43.854;2023-12-04T09:11:10;18.60;;;8.82;;
73452;SDS011;61687;56.232;43.854;2023-12-04T09:13:37;18.90;;;8.60;;
73452;SDS011;61687;56.232;43.854;2023-12-04T09:16:04;20.35;;;8.50;;
73452;SDS011;61687;56.232;43.854;2023-12-04T09:18:31;20.17;;;8.93;;
73452;SDS011;61687;56.232;43.854;2023-12-04T09:20:58;17.17;;;7.97;;
73452;SDS011;61687;56.232;43.854;2023-12-04T09:23:24;18.35;;;9.68;;
73452;SDS011;61687;56.232;43.854;2023-12-04T09:25:50;20.10;;;8.00;;
73452;SDS011;61687;56.232;43.854;2023-12-04T09:28:17;20.23;;;8.38;;
73452;SDS011;61687;56.232;43.854;2023-12-04T09:30:43;16.90;;;7.68;;
73452;SDS011;61687;56.232;43.854;2023-12-04T09:33:09;17.75;;;8.82;;
73452;SDS011;61687;56.232;43.854;2023-12-04T09:35:35;19.75;;;8.40;;
73452;SDS011;61687;56.232;43.854;2023-12-04T09:38:01;19.03;;;8.47;;
73452;SDS011;61687;56.232;43.854;2023-12-04T09:40:27;17.88;;;8.20;;
73452;SDS011;61687;56.232;43.854;2023-12-04T09:42:53;14.18;;;7.63;;
73452;SDS011;61687;56.232;43.854;2023-12-04T09:45:20;18.52;;;8.95;;
73452;SDS011;61687;56.232;43.854;2023-12-04T09:47:49;18.80;;;9.15;;
73452;SDS011;61687;56.232;43.854;2023-12-04T09:50:15;17.30;;;8.07;;
73452;SDS011;61687;56.232;43.854;2023-12-04T09:52:50;18.17;;;9.02;;
73452;SDS011;61687;56.232;43.854;2023-12-04T09:55:16;16.95;;;8.68;;
73452;SDS011;61687;56.232;43.854;2023-12-04T09:57:44;23.73;;;9.73;;
73452;SDS011;61687;56.232;43.854;2023-12-04T10:00:11;16.00;;;8.13;;
73452;SDS011;61687;56.232;43.854;2023-12-04T10:02:40;17.65;;;8.55;;
73452;SDS011;61687;56.232;43.854;2023-12-04T10:05:07;18.95;;;8.55;;
73452;SDS011;61687;56.232;43.854;2023-12-04T10:07:34;18.40;;;8.52;;
73452;SDS011;61687;56.232;43.854;2023-12-04T10:10:02;21.98;;;9.60;;
73452;SDS011;61687;56.232;43.854;2023-12-04T10:12:31;18.37;;;8.13;;
73452;SDS011;61687;56.232;43.854;2023-12-04T10:15:17;19.48;;;9.45;;
73452;SDS011;61687;56.232;43.854;2023-12-04T10:17:43;19.27;;;8.40;;
73452;SDS011;61687;56.232;43.854;2023-12-04T10:20:10;18.30;;;9.15;;
73452;SDS011;61687;56.232;43.854;2023-12-04T10:22:39;17.90;;;8.80;;
73452;SDS011;61687;56.232;43.854;2023-12-04T10:25:13;18.23;;;8.30;;
73452;SDS011;61687;56.232;43.854;2023-12-04T10:27:41;17.10;;;8.40;;
73452;SDS011;61687;56.232;43.854;2023-12-04T10:30:07;17.13;;;8.13;;
73452;SDS011;61687;56.232;43.854;2023-12-04T10:32:36;16.17;;;8.38;;
73452;SDS011;61687;56.232;43.854;2023-12-04T10:35:05;17.05;;;8.27;;
73452;SDS011;61687;56.232;43.854;2023-12-04T10:37:36;14.27;;;7.30;;
73452;SDS011;61687;56.232;43.854;2023-12-04T10:40:03;11.45;;;5.65;;
73452;SDS011;61687;56.232;43.854;2023-12-04T10:42:34;20.55;;;9.15;;
73452;SDS011;61687;56.232;43.854;2023-12-04T10:45:01;14.70;;;7.47;;
73452;SDS011;61687;56.232;43.854;2023-12-04T10:47:30;18.50;;;7.93;;
73452;SDS011;61687;56.232;43.854;2023-12-04T10:49:57;19.77;;;8.53;;
73452;SDS011;61687;56.232;43.854;2023-12-04T10:52:23;19.88;;;7.53;;
73452;SDS011;61687;56.232;43.854;2023-12-04T10:54:49;18.33;;;8.23;;
73452;SDS011;61687;56.232;43.854;2023-12-04T10:57:18;15.55;;;7.00;;
73452;SDS011;61687;56.232;43.854;2023-12-04T10:59:50;15.90;;;8.00;;
73452;SDS011;61687;56.232;43.854;2023-12-04T11:02:21;14.20;;;6.90;;
73452;SDS011;61687;56.232;43.854;2023-12-04T11:04:55;17.52;;;8.25;;
73452;SDS011;61687;56.232;43.854;2023-12-04T11:07:29;17.38;;;7.30;;
73452;SDS011;61687;56.232;43.854;2023-12-04T11:09:58;13.73;;;7.70;;
73452;SDS011;61687;56.232;43.854;2023-12-04T11:12:25;14.30;;;6.53;;
73452;SDS011;61687;56.232;43.854;2023-12-04T11:14:56;16.58;;;8.32;;
73452;SDS011;61687;56.232;43.854;2023-12-04T11:17:31;18.80;;;8.35;;
73452;SDS011;61687;56.232;43.854;2023-12-04T11:20:04;14.65;;;6.10;;
73452;SDS011;61687;56.232;43.854;2023-12-04T11:22:37;15.70;;;7.25;;
73452;SDS011;61687;56.232;43.854;2023-12-04T11:25:06;16.73;;;6.77;;
73452;SDS011;61687;56.232;43.854;2023-12-04T11:27:33;13.93;;;6.53;;
73452;SDS011;61687;56.232;43.854;2023-12-04T11:30:00;18.20;;;7.43;;
73452;SDS011;61687;56.232;43.854;2023-12-04T11:32:30;15.50;;;7.70;;
73452;SDS011;61687;56.232;43.854;2023-12-04T11:34:57;16.63;;;7.60;;
73452;SDS011;61687;56.232;43.854;2023-12-04T11:37:30;12.53;;;6.77;;
73452;SDS011;61687;56.232;43.854;2023-12-04T11:39:56;12.63;;;6.70;;
73452;SDS011;61687;56.232;43.854;2023-12-04T11:42:24;15.45;;;7.30;;
73452;SDS011;61687;56.232;43.854;2023-12-04T11:44:57;14.15;;;6.30;;
73452;SDS011;61687;56.232;43.854;2023-12-04T11:47:23;12.38;;;7.10;;
73452;SDS011;61687;56.232;43.854;2023-12-04T11:49:49;10.60;;;5.80;;
73452;SDS011;61687;56.232;43.854;2023-12-04T11:52:15;14.90;;;6.68;;
73452;SDS011;61687;56.232;43.854;2023-12-04T11:55:00;11.77;;;6.57;;
73452;SDS011;61687;56.232;43.854;2023-12-04T11:57:39;12.32;;;6.97;;
73452;SDS011;61687;56.232;43.854;2023-12-04T12:00:13;15.97;;;6.53;;
73452;SDS011;61687;56.232;43.854;2023-12-04T12:05:18;13.73;;;6.38;;
73452;SDS011;61687;56.232;43.854;2023-12-04T12:07:45;15.68;;;6.65;;
73452;SDS011;61687;56.232;43.854;2023-12-04T12:10:15;13.40;;;6.57;;
73452;SDS011;61687;56.232;43.854;2023-12-04T12:12:43;15.70;;;7.37;;
73452;SDS011;61687;56.232;43.854;2023-12-04T12:15:10;17.45;;;7.05;;
73452;SDS011;61687;56.232;43.854;2023-12-04T12:17:40;15.48;;;6.40;;
73452;SDS011;61687;56.232;43.854;2023-12-04T12:20:14;15.63;;;7.03;;
73452;SDS011;61687;56.232;43.854;2023-12-04T12:22:40;14.38;;;7.78;;
73452;SDS011;61687;56.232;43.854;2023-12-04T12:25:12;19.80;;;8.20;;
73452;SDS011;61687;56.232;43.854;2023-12-04T12:27:39;17.55;;;7.18;;
73452;SDS011;61687;56.232;43.854;2023-12-04T12:30:06;17.08;;;8.02;;
73452;SDS011;61687;56.232;43.854;2023-12-04T12:32:33;15.00;;;6.45;;
73452;SDS011;61687;56.232;43.854;2023-12-04T12:35:00;18.30;;;7.90;;
73452;SDS011;61687;56.232;43.854;2023-12-04T12:37:26;15.80;;;6.90;;
73452;SDS011;61687;56.232;43.854;2023-12-04T12:39:52;19.48;;;8.98;;
73452;SDS011;61687;56.232;43.854;2023-12-04T12:42:21;22.05;;;8.93;;
73452;SDS011;61687;56.232;43.854;2023-12-04T12:44:51;16.30;;;7.18;;
73452;SDS011;61687;56.232;43.854;2023-12-04T12:47:18;18.67;;;8.20;;
73452;SDS011;61687;56.232;43.854;2023-12-04T12:49:44;23.23;;;9.02;;
73452;SDS011;61687;56.232;43.854;2023-12-04T12:52:11;21.17;;;8.43;;
73452;SDS011;61687;56.232;43.854;2023-12-04T12:54:37;18.73;;;8.55;;
73452;SDS011;61687;56.232;43.854;2023-12-04T12:57:04;17.33;;;7.03;;
73452;SDS011;61687;56.232;43.854;2023-12-04T12:59:31;14.53;;;7.90;;
73452;SDS011;61687;56.232;43.854;2023-12-04T13:01:57;20.15;;;8.35;;
73452;SDS011;61687;56.232;43.854;2023-12-04T13:04:26;18.85;;;8.55;;
73452;SDS011;61687;56.232;43.854;2023-12-04T13:06:59;16.55;;;7.70;;
73452;SDS011;61687;56.232;43.854;2023-12-04T13:09:25;16.33;;;7.65;;
73452;SDS011;61687;56.232;43.854;2023-12-04T13:11:51;15.27;;;6.70;;
73452;SDS011;61687;56.232;43.854;2023-12-04T13:14:17;16.25;;;7.45;;
73452;SDS011;61687;56.232;43.854;2023-12-04T13:16:44;13.70;;;7.38;;
73452;SDS011;61687;56.232;43.854;2023-12-04T13:19:09;17.58;;;6.97;;
73452;SDS011;61687;56.232;43.854;2023-12-04T13:21:36;12.90;;;7.03;;
73452;SDS011;61687;56.232;43.854;2023-12-04T13:24:02;17.63;;;7.75;;
73452;SDS011;61687;56.232;43.854;2023-12-04T13:26:33;13.48;;;6.75;;
73452;SDS011;61687;56.232;43.854;2023-12-04T13:28:59;14.23;;;7.18;;
73452;SDS011;61687;56.232;43.854;2023-12-04T13:31:25;14.75;;;7.65;;
73452;SDS011;61687;56.232;43.854;2023-12-04T13:33:53;16.30;;;7.80;;
73452;SDS011;61687;56.232;43.854;2023-12-04T13:36:20;14.93;;;6.95;;
73452;SDS011;61687;56.232;43.854;2023-12-04T13:38:46;13.82;;;6.43;;
73452;SDS011;61687;56.232;43.854;2023-12-04T13:41:12;16.55;;;7.25;;
73452;SDS011;61687;56.232;43.854;2023-12-04T13:44:04;16.67;;;7.70;;
73452;SDS011;61687;56.232;43.854;2023-12-04T13:46:30;12.77;;;6.30;;
73452;SDS011;61687;56.232;43.854;2023-12-04T13:48:58;12.73;;;7.32;;
73452;SDS011;61687;56.232;43.854;2023-12-04T13:51:25;12.65;;;6.45;;
73452;SDS011;61687;56.232;43.854;2023-12-04T13:53:52;12.60;;;6.13;;
73452;SDS011;61687;56.232;43.854;2023-12-04T13:56:22;14.30;;;6.75;;
73452;SDS011;61687;56.232;43.854;2023-12-04T13:58:48;16.17;;;7.07;;
73452;SDS011;61687;56.232;43.854;2023-12-04T14:01:24;12.70;;;6.75;;
73452;SDS011;61687;56.232;43.854;2023-12-04T14:03:54;17.20;;;6.63;;
73452;SDS011;61687;56.232;43.854;2023-12-04T14:06:29;12.63;;;6.15;;
73452;SDS011;61687;56.232;43.854;2023-12-04T14:08:56;17.52;;;7.32;;
73452;SDS011;61687;56.232;43.854;2023-12-04T14:11:22;12.80;;;6.27;;
73452;SDS011;61687;56.232;43.854;2023-12-04T14:13:49;13.30;;;6.30;;
73452;SDS011;61687;56.232;43.854;2023-12-04T14:16:15;12.68;;;6.60;;
73452;SDS011;61687;56.232;43.854;2023-12-04T14:18:41;15.98;;;8.07;;
73452;SDS011;61687;56.232;43.854;2023-12-04T14:21:08;16.90;;;8.48;;